Time;durP1;ratioP1;P1;durP2;ratioP2;P2;SDS_P1;SDS_P2;PMS_P1;PMS_P2;Temp;Humidity;BMP_temperature;BMP_pressure;BME280_temperature;BME280_humidity;BME280_pressure;Samples;Min_cycle;Max_cycle;Signal;HPM_P1;HPM_P2
2022/01/09 00:01:48;;;;;;;16.70;1.88;;;3.50;87.10;;;;;;4828867;29;20057;-75
2022/01/09 00:04:15;;;;;;;12.70;2.22;;;3.50;87.30;;;;;;4831040;29;20075;-75
2022/01/09 00:06:43;;;;;;;11.68;1.77;;;3.50;87.40;;;;;;4825882;29;20050;-76
2022/01/09 00:09:11;;;;;;;17.50;2.72;;;3.50;87.40;;;;;;4830346;29;20050;-75
2022/01/09 00:11:39;;;;;;;21.52;2.47;;;3.50;87.30;;;;;;4817915;29;20084;-76
2022/01/09 00:14:07;;;;;;;12.25;2.03;;;3.60;87.00;;;;;;4828030;29;20052;-74
2022/01/09 00:16:35;;;;;;;12.85;2.17;;;3.70;86.60;;;;;;4829516;29;20509;-75
2022/01/09 00:19:04;;;;;;;16.98;2.35;;;3.80;86.50;;;;;;4841987;29;20514;-76
2022/01/09 00:21:31;;;;;;;17.88;2.25;;;3.80;86.00;;;;;;4813720;29;20375;-76
2022/01/09 00:23:59;;;;;;;12.25;2.50;;;3.90;85.80;;;;;;4828315;29;20486;-76
2022/01/09 00:26:27;;;;;;;14.52;2.40;;;3.90;85.70;;;;;;4832566;29;20057;-76
2022/01/09 00:28:54;;;;;;;12.93;2.08;;;3.80;85.60;;;;;;4830307;29;20058;-76
2022/01/09 00:31:22;;;;;;;14.23;2.22;;;3.80;85.50;;;;;;4828396;29;20080;-76
2022/01/09 00:33:49;;;;;;;12.13;1.80;;;3.80;85.40;;;;;;4825770;29;20054;-77
2022/01/09 00:36:17;;;;;;;12.02;1.80;;;3.70;85.50;;;;;;4829576;29;20046;-76
2022/01/09 00:38:45;;;;;;;14.45;2.22;;;3.60;85.60;;;;;;4833257;29;20537;-76
2022/01/09 00:41:12;;;;;;;16.88;2.17;;;3.50;85.70;;;;;;4825569;29;20055;-76
2022/01/09 00:43:40;;;;;;;16.75;1.85;;;3.40;85.80;;;;;;4829996;29;20070;-76
2022/01/09 00:46:09;;;;;;;13.18;2.00;;;3.40;85.80;;;;;;4827419;29;20050;-75
2022/01/09 00:48:36;;;;;;;13.85;2.22;;;3.40;85.80;;;;;;4834415;29;20494;-75
2022/01/09 00:51:05;;;;;;;14.02;1.92;;;3.40;85.90;;;;;;4840026;29;20050;-75
2022/01/09 00:53:33;;;;;;;9.60;1.90;;;3.50;85.80;;;;;;4830780;29;20069;-77
2022/01/09 00:56:01;;;;;;;15.02;2.05;;;3.50;85.40;;;;;;4829920;29;20050;-76
2022/01/09 00:58:28;;;;;;;10.07;2.03;;;3.50;85.00;;;;;;4843846;29;20049;-76
2022/01/09 01:00:56;;;;;;;11.82;1.95;;;3.50;84.70;;;;;;4826940;29;20042;-76
2022/01/09 01:03:24;;;;;;;10.85;1.52;;;3.50;84.60;;;;;;4826242;29;20650;-76
2022/01/09 01:05:51;;;;;;;17.33;2.70;;;3.50;84.60;;;;;;4830561;29;20050;-77
2022/01/09 01:08:19;;;;;;;18.13;2.78;;;3.40;84.60;;;;;;4831173;29;20055;-76
2022/01/09 01:10:47;;;;;;;18.88;2.38;;;3.30;84.80;;;;;;4828356;29;20057;-76
2022/01/09 01:13:15;;;;;;;8.52;1.23;;;3.30;84.90;;;;;;4831022;29;20054;-77
2022/01/09 01:15:42;;;;;;;12.30;1.65;;;3.30;85.00;;;;;;4830250;29;20042;-77
2022/01/09 01:18:10;;;;;;;14.25;2.00;;;3.20;85.10;;;;;;4826239;29;20397;-77
2022/01/09 01:20:38;;;;;;;13.38;1.75;;;3.20;85.20;;;;;;4829848;29;20050;-77
2022/01/09 01:23:06;;;;;;;19.48;2.72;;;3.20;85.30;;;;;;4829268;29;20046;-76
2022/01/09 01:25:35;;;;;;;17.15;2.15;;;3.10;85.40;;;;;;4830974;29;20058;-77
2022/01/09 01:28:03;;;;;;;11.25;1.85;;;3.10;85.50;;;;;;4831756;29;20208;-76
2022/01/09 01:30:32;;;;;;;18.90;1.70;;;3.20;85.50;;;;;;4830666;29;20062;-77
2022/01/09 01:33:00;;;;;;;11.18;2.03;;;3.20;85.60;;;;;;4822489;29;20058;-76
2022/01/09 01:35:28;;;;;;;20.17;2.38;;;3.10;85.50;;;;;;4824359;29;20518;-77
2022/01/09 01:37:55;;;;;;;12.45;2.15;;;3.10;85.60;;;;;;4810071;29;20061;-77
2022/01/09 01:40:23;;;;;;;10.95;1.73;;;3.10;85.60;;;;;;4830956;29;20057;-76
2022/01/09 01:42:51;;;;;;;14.77;2.80;;;3.20;85.60;;;;;;4832630;29;20066;-76
2022/01/09 01:45:19;;;;;;;18.88;2.63;;;3.20;85.40;;;;;;4817458;29;20065;-77
2022/01/09 01:47:46;;;;;;;12.88;2.42;;;3.20;85.40;;;;;;4815452;29;20053;-76
2022/01/09 01:50:14;;;;;;;14.30;2.33;;;3.20;85.50;;;;;;4820955;29;20046;-76
2022/01/09 01:52:46;;;;;;;10.77;1.75;;;3.20;85.60;;;;;;4827708;29;20439;-76
2022/01/09 01:55:15;;;;;;;14.05;2.20;;;3.20;85.50;;;;;;4838873;29;20042;-77
2022/01/09 01:57:44;;;;;;;7.20;1.52;;;3.20;85.60;;;;;;4831941;29;20050;-76
2022/01/09 02:00:15;;;;;;;10.43;1.75;;;3.10;85.60;;;;;;4834389;29;20518;-77
2022/01/09 02:02:43;;;;;;;9.32;1.45;;;3.10;85.60;;;;;;4833292;29;20529;-77
2022/01/09 02:05:11;;;;;;;10.82;1.60;;;3.00;85.70;;;;;;4834800;29;20418;-77
2022/01/09 02:07:41;;;;;;;4.22;0.85;;;3.00;85.80;;;;;;4818070;29;20542;-76
2022/01/09 02:10:09;;;;;;;11.07;1.83;;;3.00;85.90;;;;;;4833940;29;20057;-77
2022/01/09 02:12:43;;;;;;;13.93;1.77;;;3.00;85.90;;;;;;4834458;29;20058;-76
2022/01/09 02:15:34;;;;;;;8.05;1.48;;;3.00;85.90;;;;;;4825780;29;20046;-77
2022/01/09 02:18:08;;;;;;;16.35;2.00;;;3.00;85.90;;;;;;4836882;29;20046;-76
2022/01/09 02:20:37;;;;;;;9.07;1.63;;;3.10;85.80;;;;;;4828155;29;20066;-76
2022/01/09 02:23:07;;;;;;;20.70;2.75;;;3.00;85.70;;;;;;4824465;29;20065;-77
2022/01/09 02:25:35;;;;;;;13.73;2.03;;;3.00;85.70;;;;;;4832462;29;20533;-77
2022/01/09 02:28:04;;;;;;;11.88;2.05;;;2.90;85.90;;;;;;4831252;29;20061;-77
2022/01/09 02:30:33;;;;;;;15.93;2.38;;;2.80;86.20;;;;;;4839733;29;20061;-77
2022/01/09 02:33:04;;;;;;;30.00;3.45;;;2.80;86.40;;;;;;4832274;29;20069;-77
2022/01/09 02:35:34;;;;;;;12.57;1.65;;;2.70;86.70;;;;;;4841571;29;20359;-77
2022/01/09 02:38:04;;;;;;;12.90;1.98;;;2.70;86.80;;;;;;4830104;29;20054;-76
2022/01/09 02:40:32;;;;;;;10.10;1.55;;;2.70;86.90;;;;;;4841384;29;20050;-77
2022/01/09 02:43:00;;;;;;;11.80;1.98;;;2.70;87.00;;;;;;4829959;29;20049;-76
2022/01/09 02:45:29;;;;;;;14.73;1.63;;;2.70;87.20;;;;;;4840844;29;20042;-76
2022/01/09 02:47:58;;;;;;;9.93;1.40;;;2.70;87.10;;;;;;4830559;29;20058;-76
2022/01/09 02:50:32;;;;;;;8.18;1.35;;;2.70;87.00;;;;;;4807710;29;20499;-77
2022/01/09 02:53:12;;;;;;;13.23;1.77;;;2.80;86.80;;;;;;4834700;29;20050;-77
2022/01/09 02:55:41;;;;;;;4.13;0.82;;;2.80;86.50;;;;;;4832162;29;20046;-77
2022/01/09 02:58:09;;;;;;;8.98;1.05;;;2.80;86.30;;;;;;4821558;29;20050;-76
2022/01/09 03:00:40;;;;;;;12.57;1.33;;;2.80;86.30;;;;;;4832274;29;20050;-77
2022/01/09 03:03:09;;;;;;;12.63;1.60;;;2.80;86.20;;;;;;4827517;29;20046;-77
2022/01/09 03:05:37;;;;;;;8.30;1.70;;;2.80;86.30;;;;;;4838612;29;20046;-77
2022/01/09 03:08:05;;;;;;;13.15;1.52;;;2.80;86.40;;;;;;4833855;29;20057;-77
2022/01/09 03:10:33;;;;;;;10.63;1.52;;;2.70;86.50;;;;;;4831904;29;20612;-77
2022/01/09 03:13:00;;;;;;;10.45;1.13;;;2.60;86.70;;;;;;4832574;29;20062;-77
2022/01/09 03:15:28;;;;;;;8.30;1.20;;;2.60;86.80;;;;;;4833391;29;20047;-77
2022/01/09 03:17:55;;;;;;;9.77;1.50;;;2.70;86.80;;;;;;4838504;29;20054;-76
2022/01/09 03:20:25;;;;;;;6.65;1.10;;;2.70;86.70;;;;;;4838684;29;20049;-77
2022/01/09 03:22:54;;;;;;;11.38;1.55;;;2.60;86.70;;;;;;4809092;29;20046;-77
2022/01/09 03:25:24;;;;;;;8.73;1.00;;;2.60;86.90;;;;;;4838270;29;20068;-77
2022/01/09 03:27:55;;;;;;;5.93;0.90;;;2.50;86.90;;;;;;4835830;29;20468;-77
2022/01/09 03:30:23;;;;;;;4.75;1.00;;;2.50;87.00;;;;;;4824487;29;20413;-76
2022/01/09 03:32:53;;;;;;;11.65;1.65;;;2.50;87.10;;;;;;4835974;29;20057;-77
2022/01/09 03:35:22;;;;;;;7.25;1.20;;;2.50;87.20;;;;;;4837553;29;20050;-77
2022/01/09 03:37:51;;;;;;;11.40;1.63;;;2.40;87.30;;;;;;4823645;29;20050;-77
2022/01/09 03:40:20;;;;;;;12.25;1.48;;;2.30;87.40;;;;;;4831251;29;20418;-77
2022/01/09 03:42:51;;;;;;;11.77;1.90;;;2.30;87.50;;;;;;4845557;29;20053;-76
2022/01/09 03:45:20;;;;;;;9.40;1.23;;;2.20;87.70;;;;;;4812467;29;20058;-77
2022/01/09 03:47:49;;;;;;;11.02;1.45;;;2.20;87.80;;;;;;4841260;29;20053;-77
2022/01/09 03:50:17;;;;;;;12.30;1.55;;;2.10;88.00;;;;;;4841119;29;20481;-77
2022/01/09 03:52:48;;;;;;;13.80;1.58;;;2.10;88.20;;;;;;4826450;29;20106;-77
2022/01/09 03:55:19;;;;;;;7.22;1.15;;;2.20;88.30;;;;;;4838381;29;20050;-77
2022/01/09 03:57:48;;;;;;;8.30;1.23;;;2.30;88.20;;;;;;4818850;29;20065;-77
2022/01/09 04:00:22;;;;;;;14.77;1.67;;;2.40;88.10;;;;;;4837509;29;20066;-77
2022/01/09 04:02:50;;;;;;;7.32;1.55;;;2.50;87.80;;;;;;4840360;29;20054;-76
2022/01/09 04:05:18;;;;;;;7.03;1.33;;;2.60;87.70;;;;;;4833415;29;20062;-77
2022/01/09 04:07:46;;;;;;;8.18;1.35;;;2.70;87.50;;;;;;4838661;29;20058;-77
2022/01/09 04:10:28;;;;;;;9.77;1.52;;;2.70;87.30;;;;;;4814168;29;20054;-77
2022/01/09 04:13:02;;;;;;;11.77;1.48;;;2.80;87.20;;;;;;4834677;29;20142;-77
2022/01/09 04:15:29;;;;;;;10.70;1.40;;;2.80;87.10;;;;;;4835703;29;20066;-77
2022/01/09 04:17:58;;;;;;;6.82;1.35;;;2.90;87.00;;;;;;4828893;29;20062;-77
2022/01/09 04:20:29;;;;;;;12.00;1.67;;;2.90;86.90;;;;;;4822548;29;20403;-77
2022/01/09 04:22:58;;;;;;;6.53;1.40;;;3.00;86.80;;;;;;4822632;29;20054;-76
2022/01/09 04:25:26;;;;;;;5.75;1.08;;;3.00;86.80;;;;;;4833419;29;20057;-77
2022/01/09 04:27:54;;;;;;;8.63;1.42;;;2.90;86.50;;;;;;4836048;29;20050;-77
2022/01/09 04:30:22;;;;;;;11.75;1.38;;;2.90;86.50;;;;;;4835409;29;20470;-77
2022/01/09 04:32:50;;;;;;;20.40;2.05;;;2.90;86.60;;;;;;4822357;29;20038;-77
2022/01/09 04:35:17;;;;;;;10.80;1.38;;;2.80;86.80;;;;;;4813393;29;20064;-77
2022/01/09 04:37:47;;;;;;;13.65;1.60;;;2.70;86.80;;;;;;4838961;29;20538;-77
2022/01/09 04:40:17;;;;;;;11.35;1.92;;;2.70;86.80;;;;;;4830930;29;20054;-77
2022/01/09 04:42:49;;;;;;;10.90;1.05;;;2.70;86.90;;;;;;4834818;29;20046;-77
2022/01/09 04:45:18;;;;;;;10.60;1.67;;;2.70;87.10;;;;;;4831645;29;20086;-77
2022/01/09 04:47:49;;;;;;;5.22;1.00;;;2.70;87.20;;;;;;4823108;29;20061;-77
2022/01/09 04:50:25;;;;;;;10.98;1.02;;;2.60;87.40;;;;;;4829212;29;20061;-77
2022/01/09 04:53:15;;;;;;;17.23;1.45;;;2.60;87.50;;;;;;4838889;29;20053;-77
2022/01/09 04:55:50;;;;;;;10.60;1.45;;;2.60;87.60;;;;;;4822158;29;20402;-77
2022/01/09 04:58:18;;;;;;;8.23;1.13;;;2.50;87.70;;;;;;4839170;29;20441;-78
2022/01/09 05:00:46;;;;;;;7.07;1.20;;;2.50;87.90;;;;;;4839465;29;20518;-77
2022/01/09 05:03:15;;;;;;;7.95;1.70;;;2.50;88.00;;;;;;4823712;29;20065;-77
2022/01/09 05:05:43;;;;;;;10.00;1.67;;;2.40;88.20;;;;;;4839231;29;20053;-77
2022/01/09 05:08:11;;;;;;;12.55;1.60;;;2.40;88.20;;;;;;4838911;29;20060;-77
2022/01/09 05:10:38;;;;;;;7.88;1.58;;;2.40;88.20;;;;;;4839964;29;20054;-78
2022/01/09 05:13:06;;;;;;;9.30;1.40;;;2.30;88.20;;;;;;4839157;29;20050;-77
2022/01/09 05:15:34;;;;;;;11.80;1.77;;;2.30;88.40;;;;;;4839447;29;20049;-77
2022/01/09 05:18:04;;;;;;;7.10;1.90;;;2.30;88.70;;;;;;4840161;29;20049;-77
2022/01/09 05:20:32;;;;;;;8.68;1.58;;;2.30;88.60;;;;;;4839837;29;20426;-77
2022/01/09 05:23:00;;;;;;;11.85;1.58;;;2.30;88.60;;;;;;4853781;29;20054;-77
2022/01/09 05:25:27;;;;;;;10.93;2.17;;;2.30;88.60;;;;;;4842544;29;20414;-77
2022/01/09 05:27:55;;;;;;;10.65;1.50;;;2.30;88.60;;;;;;4841221;29;20077;-77
2022/01/09 05:30:22;;;;;;;13.38;2.22;;;2.20;88.60;;;;;;4836104;29;20053;-78
2022/01/09 05:32:50;;;;;;;12.93;1.50;;;2.20;88.70;;;;;;4828580;29;20578;-78
2022/01/09 05:35:18;;;;;;;9.60;1.30;;;2.10;88.80;;;;;;4832487;29;20054;-78
2022/01/09 05:37:45;;;;;;;15.50;2.00;;;2.10;88.90;;;;;;4839551;29;20057;-78
2022/01/09 05:40:13;;;;;;;11.57;1.52;;;2.00;89.00;;;;;;4824925;29;20055;-79
2022/01/09 05:42:41;;;;;;;12.85;1.48;;;2.00;89.00;;;;;;4820070;29;20077;-78
2022/01/09 05:45:09;;;;;;;5.32;1.20;;;2.00;89.10;;;;;;4819597;29;20062;-75
2022/01/09 05:47:37;;;;;;;14.82;2.42;;;2.00;89.10;;;;;;4821408;29;20042;-75
2022/01/09 05:50:05;;;;;;;6.07;1.45;;;2.00;89.10;;;;;;4831024;29;20069;-76
2022/01/09 05:52:33;;;;;;;13.52;1.52;;;1.90;89.10;;;;;;4809092;29;20081;-76
2022/01/09 05:55:00;;;;;;;11.13;1.40;;;2.00;89.20;;;;;;4831051;29;20050;-76
2022/01/09 05:57:28;;;;;;;5.53;1.10;;;2.00;89.20;;;;;;4839122;29;20053;-76
2022/01/09 05:59:55;;;;;;;10.20;1.30;;;1.90;89.20;;;;;;4836280;29;20410;-76
2022/01/09 06:02:23;;;;;;;10.43;1.35;;;2.00;89.30;;;;;;4822697;29;20055;-76
2022/01/09 06:04:51;;;;;;;12.00;1.60;;;2.00;89.30;;;;;;4836353;29;20055;-77
2022/01/09 06:07:19;;;;;;;9.88;1.25;;;2.00;89.20;;;;;;4828558;29;20109;-76
2022/01/09 06:09:46;;;;;;;12.85;1.50;;;2.00;89.30;;;;;;4830198;29;20061;-76
2022/01/09 06:12:14;;;;;;;15.52;1.80;;;2.00;89.30;;;;;;4839129;29;20062;-76
2022/01/09 06:14:42;;;;;;;8.05;1.45;;;1.90;89.40;;;;;;4821340;29;20069;-75
2022/01/09 06:17:10;;;;;;;11.65;1.30;;;1.80;89.50;;;;;;4832502;29;20522;-76
2022/01/09 06:19:38;;;;;;;6.82;1.40;;;1.80;89.60;;;;;;4814125;29;20061;-76
2022/01/09 06:22:06;;;;;;;10.50;1.73;;;1.90;89.80;;;;;;4821154;29;20046;-76
2022/01/09 06:24:33;;;;;;;11.40;1.50;;;1.90;89.90;;;;;;4821278;29;20193;-76
2022/01/09 06:27:01;;;;;;;10.05;1.27;;;2.00;89.80;;;;;;4826411;29;20038;-76
2022/01/09 06:29:28;;;;;;;7.35;1.20;;;2.00;89.80;;;;;;4827005;29;20057;-76
2022/01/09 06:31:56;;;;;;;11.05;1.45;;;2.00;89.80;;;;;;4809806;29;20063;-77
2022/01/09 06:34:23;;;;;;;3.67;1.35;;;2.00;89.80;;;;;;4832964;29;20412;-76
2022/01/09 06:36:51;;;;;;;7.88;1.27;;;2.00;89.90;;;;;;4825887;29;20050;-77
2022/01/09 06:39:19;;;;;;;14.00;1.23;;;2.00;89.80;;;;;;4839392;29;20046;-76
2022/01/09 06:41:46;;;;;;;11.23;1.15;;;2.00;89.90;;;;;;4824065;29;20415;-76
2022/01/09 06:44:14;;;;;;;11.63;1.77;;;2.00;89.90;;;;;;4823899;29;20491;-76
2022/01/09 06:46:42;;;;;;;11.18;2.00;;;2.00;89.90;;;;;;4824843;29;20062;-76
2022/01/09 06:49:10;;;;;;;8.10;1.52;;;1.90;90.00;;;;;;4804163;29;20058;-77
2022/01/09 06:51:38;;;;;;;12.88;1.80;;;2.00;90.00;;;;;;4799125;29;20053;-76
2022/01/09 06:54:05;;;;;;;11.15;1.40;;;2.00;89.90;;;;;;4831375;29;20069;-76
2022/01/09 06:56:33;;;;;;;7.93;1.35;;;2.10;89.90;;;;;;4831374;29;20049;-77
2022/01/09 06:59:01;;;;;;;9.18;1.50;;;2.10;89.70;;;;;;4808525;29;20046;-76
2022/01/09 07:01:28;;;;;;;7.72;1.50;;;2.10;89.60;;;;;;4824861;29;20113;-76
2022/01/09 07:03:56;;;;;;;8.15;1.08;;;2.20;89.50;;;;;;4816379;29;20049;-76
2022/01/09 07:06:24;;;;;;;6.35;1.20;;;2.20;89.40;;;;;;4826119;29;20050;-77
2022/01/09 07:08:52;;;;;;;12.18;1.15;;;2.20;89.30;;;;;;4827374;29;20050;-75
2022/01/09 07:11:19;;;;;;;5.97;1.08;;;2.20;89.30;;;;;;4834069;29;20050;-76
2022/01/09 07:13:47;;;;;;;16.08;1.67;;;2.20;89.20;;;;;;4817177;29;20105;-76
2022/01/09 07:16:15;;;;;;;8.57;1.13;;;2.20;89.20;;;;;;4837892;29;20054;-76
2022/01/09 07:18:43;;;;;;;14.80;1.77;;;2.20;89.30;;;;;;4823433;29;20043;-77
2022/01/09 07:21:10;;;;;;;15.05;1.70;;;2.10;89.30;;;;;;4831092;29;20578;-77
2022/01/09 07:23:38;;;;;;;6.35;0.85;;;2.10;89.40;;;;;;4822748;29;20065;-76
2022/01/09 07:26:06;;;;;;;13.75;1.10;;;2.10;89.40;;;;;;4840418;29;20050;-77
2022/01/09 07:28:33;;;;;;;8.32;1.45;;;2.20;89.40;;;;;;4840232;29;20386;-76
2022/01/09 07:31:01;;;;;;;10.75;1.60;;;2.20;89.40;;;;;;4826116;29;20073;-76
2022/01/09 07:33:33;;;;;;;7.38;1.63;;;2.20;89.40;;;;;;4825718;29;20053;-76
2022/01/09 07:36:01;;;;;;;10.90;1.88;;;2.20;89.30;;;;;;4833001;29;20046;-77
2022/01/09 07:38:29;;;;;;;15.40;1.13;;;2.20;89.20;;;;;;4832784;29;20152;-76
2022/01/09 07:40:57;;;;;;;12.25;1.23;;;2.30;89.10;;;;;;4829537;29;20082;-76
2022/01/09 07:43:24;;;;;;;9.90;1.33;;;2.30;88.90;;;;;;4835200;29;20076;-76
2022/01/09 07:45:52;;;;;;;14.93;1.58;;;2.30;88.70;;;;;;4814337;29;20061;-76
2022/01/09 07:48:23;;;;;;;11.73;1.85;;;2.30;88.70;;;;;;4820841;29;20054;-75
2022/01/09 07:50:51;;;;;;;14.15;2.75;;;2.30;88.80;;;;;;4838068;29;20547;-75
2022/01/09 07:53:23;;;;;;;7.30;1.40;;;2.20;88.90;;;;;;4838068;29;20050;-76
2022/01/09 07:55:53;;;;;;;8.93;1.63;;;2.20;89.00;;;;;;4816780;29;20058;-76
2022/01/09 07:58:21;;;;;;;8.57;1.48;;;2.20;89.00;;;;;;4835789;29;20057;-75
2022/01/09 08:00:49;;;;;;;7.57;1.30;;;2.20;89.10;;;;;;4838437;29;20046;-75
2022/01/09 08:03:17;;;;;;;8.35;1.58;;;2.20;89.10;;;;;;4831012;29;20051;-77
2022/01/09 08:05:45;;;;;;;17.10;2.00;;;2.20;89.10;;;;;;4833855;29;20062;-76
2022/01/09 08:08:13;;;;;;;9.02;1.65;;;2.20;89.00;;;;;;4816316;29;20050;-76
2022/01/09 08:10:40;;;;;;;7.63;1.42;;;2.20;88.90;;;;;;4833500;29;20054;-77
2022/01/09 08:13:08;;;;;;;13.23;1.67;;;2.20;88.90;;;;;;4833838;29;20050;-76
2022/01/09 08:15:35;;;;;;;8.32;1.45;;;2.20;88.90;;;;;;4832363;29;20054;-76
2022/01/09 08:18:03;;;;;;;10.57;2.03;;;2.20;88.80;;;;;;4830367;29;20061;-76
2022/01/09 08:20:31;;;;;;;12.70;1.80;;;2.20;88.70;;;;;;4832698;29;20058;-76
2022/01/09 08:22:59;;;;;;;14.32;1.40;;;2.20;88.60;;;;;;4831114;29;20049;-76
2022/01/09 08:25:27;;;;;;;10.15;1.73;;;2.30;88.50;;;;;;4829840;29;20054;-76
2022/01/09 08:27:55;;;;;;;15.65;2.00;;;2.30;88.40;;;;;;4831669;29;20042;-76
2022/01/09 08:30:23;;;;;;;15.45;2.17;;;2.40;88.10;;;;;;4830540;29;20062;-76
2022/01/09 08:32:52;;;;;;;14.02;1.70;;;2.40;87.80;;;;;;4828814;29;20049;-77
2022/01/09 08:35:21;;;;;;;11.65;1.30;;;2.50;87.70;;;;;;4831006;29;20054;-77
2022/01/09 08:37:51;;;;;;;12.50;1.30;;;2.50;87.60;;;;;;4832023;29;20050;-76
2022/01/09 08:40:22;;;;;;;8.68;1.17;;;2.60;87.40;;;;;;4829693;29;20054;-76
2022/01/09 08:42:51;;;;;;;8.88;1.67;;;2.60;87.20;;;;;;4819305;29;20491;-76
2022/01/09 08:45:18;;;;;;;12.45;1.60;;;2.70;86.90;;;;;;4829858;29;20113;-76
2022/01/09 08:47:46;;;;;;;9.20;1.25;;;2.70;86.90;;;;;;4810716;29;20065;-76
2022/01/09 08:50:17;;;;;;;17.70;2.38;;;2.80;86.50;;;;;;4830517;29;20051;-75
2022/01/09 08:52:45;;;;;;;9.75;1.17;;;2.80;86.40;;;;;;4834416;29;20065;-76
2022/01/09 08:55:13;;;;;;;13.77;1.80;;;2.80;86.30;;;;;;4824798;29;20061;-76
2022/01/09 08:57:41;;;;;;;10.88;1.88;;;2.80;86.20;;;;;;4809387;29;20054;-76
2022/01/09 09:00:10;;;;;;;11.27;1.70;;;2.80;86.30;;;;;;4811697;29;20050;-76
2022/01/09 09:02:37;;;;;;;13.40;1.52;;;2.90;86.40;;;;;;4831685;29;20054;-76
2022/01/09 09:05:05;;;;;;;15.27;1.30;;;2.90;86.30;;;;;;4837957;29;20070;-76
2022/01/09 09:07:33;;;;;;;5.57;1.08;;;2.90;86.20;;;;;;4832283;29;20521;-76
2022/01/09 09:10:04;;;;;;;12.45;1.70;;;3.00;86.30;;;;;;4822305;29;20046;-76
2022/01/09 09:12:32;;;;;;;19.13;2.00;;;3.00;86.30;;;;;;4834907;29;20057;-76
2022/01/09 09:15:03;;;;;;;13.90;1.80;;;3.00;86.30;;;;;;4832214;29;20427;-76
2022/01/09 09:17:32;;;;;;;15.10;1.85;;;3.00;86.10;;;;;;4829843;29;20072;-77
2022/01/09 09:20:00;;;;;;;11.35;1.98;;;3.10;86.00;;;;;;4806351;29;20054;-77
2022/01/09 09:22:28;;;;;;;13.48;1.98;;;3.00;86.00;;;;;;4828860;29;20084;-77
2022/01/09 09:24:56;;;;;;;13.23;1.92;;;2.90;86.10;;;;;;4829739;29;20062;-77
2022/01/09 09:27:30;;;;;;;14.18;1.80;;;2.90;86.20;;;;;;4831109;29;20047;-77
2022/01/09 09:30:03;;;;;;;12.10;1.70;;;2.80;86.30;;;;;;4833714;29;20038;-77
2022/01/09 09:32:31;;;;;;;14.18;1.65;;;2.80;86.30;;;;;;4813694;29;20859;-77
2022/01/09 09:34:59;;;;;;;13.57;2.55;;;2.80;86.30;;;;;;4827176;29;20050;-76
2022/01/09 09:37:28;;;;;;;15.02;1.58;;;2.90;86.30;;;;;;4838316;29;20061;-77
2022/01/09 09:39:57;;;;;;;5.90;1.20;;;2.90;86.40;;;;;;4838503;29;20042;-76
2022/01/09 09:42:25;;;;;;;15.68;1.77;;;3.00;86.40;;;;;;4830005;29;20053;-77
2022/01/09 09:44:53;;;;;;;4.85;0.63;;;3.00;86.30;;;;;;4834923;29;20525;-76
2022/01/09 09:47:21;;;;;;;12.55;1.83;;;3.00;86.30;;;;;;4829337;29;20049;-76
2022/01/09 09:49:49;;;;;;;18.67;1.90;;;3.10;86.20;;;;;;4811144;29;20042;-76
2022/01/09 09:52:19;;;;;;;11.75;1.70;;;3.20;86.10;;;;;;4834185;29;20042;-75
2022/01/09 09:54:48;;;;;;;8.90;1.10;;;3.20;86.00;;;;;;4818043;29;20042;-76
2022/01/09 09:57:16;;;;;;;10.68;1.45;;;3.30;85.90;;;;;;4835761;29;20050;-84
2022/01/09 09:59:44;;;;;;;9.40;1.38;;;3.30;86.10;;;;;;4826960;29;20054;-87
2022/01/09 10:02:17;;;;;;;10.55;1.70;;;3.30;85.60;;;;;;4841472;29;20046;-76
2022/01/09 10:05:05;;;;;;;14.07;2.08;;;3.50;85.30;;;;;;4826004;29;20050;-84
2022/01/09 10:07:33;;;;;;;9.60;1.50;;;3.50;85.20;;;;;;4831513;29;20648;-77
2022/01/09 10:10:08;;;;;;;11.95;1.70;;;3.60;85.20;;;;;;4828217;29;20506;-77
2022/01/09 10:12:36;;;;;;;6.22;1.20;;;3.60;85.10;;;;;;4818417;29;20073;-77
2022/01/09 10:15:07;;;;;;;9.70;1.70;;;3.70;85.10;;;;;;4823878;29;20054;-76
2022/01/09 10:17:40;;;;;;;14.55;2.15;;;3.70;85.00;;;;;;4824111;29;20058;-77
2022/01/09 10:20:23;;;;;;;18.85;2.20;;;3.80;85.00;;;;;;4826648;29;20076;-78
2022/01/09 10:22:54;;;;;;;15.65;1.80;;;3.80;84.90;;;;;;4826565;29;20057;-78
2022/01/09 10:25:30;;;;;;;16.42;2.33;;;3.90;84.90;;;;;;4825036;29;20265;-78
2022/01/09 10:27:59;;;;;;;8.52;1.27;;;4.00;84.90;;;;;;4824158;29;20471;-77
2022/01/09 10:30:37;;;;;;;14.25;1.73;;;4.20;84.60;;;;;;4822453;29;20495;-77
2022/01/09 10:33:17;;;;;;;7.32;1.27;;;4.30;84.20;;;;;;4823619;29;20054;-77
2022/01/09 10:35:46;;;;;;;8.90;1.52;;;4.40;83.90;;;;;;4825776;29;20053;-77
2022/01/09 10:38:22;;;;;;;15.40;2.20;;;4.50;83.60;;;;;;4829612;29;20403;-76
2022/01/09 10:40:55;;;;;;;19.13;2.97;;;4.60;83.30;;;;;;4829350;29;20406;-78
2022/01/09 10:43:26;;;;;;;12.73;1.73;;;4.70;83.10;;;;;;4826879;29;20046;-76
2022/01/09 10:45:59;;;;;;;7.70;1.63;;;4.80;82.70;;;;;;4825924;29;20446;-77
2022/01/09 10:48:35;;;;;;;8.13;1.30;;;4.80;82.60;;;;;;4826001;29;20054;-77
2022/01/09 10:51:05;;;;;;;13.75;2.08;;;4.80;82.80;;;;;;4824937;29;20058;-77
2022/01/09 10:53:39;;;;;;;10.65;2.28;;;4.90;82.80;;;;;;4825536;29;20111;-77
2022/01/09 10:56:15;;;;;;;17.38;2.70;;;4.90;82.80;;;;;;4825808;29;20406;-77
2022/01/09 10:58:52;;;;;;;16.35;2.30;;;5.00;82.70;;;;;;4825756;29;20422;-77
2022/01/09 11:01:25;;;;;;;15.82;1.77;;;5.00;82.70;;;;;;4825746;29;20050;-77
2022/01/09 11:03:54;;;;;;;13.27;2.08;;;5.10;82.80;;;;;;4825862;29;20055;-77
2022/01/09 11:06:24;;;;;;;8.65;1.67;;;5.10;82.80;;;;;;4824635;29;20410;-77
2022/01/09 11:08:53;;;;;;;11.65;1.48;;;5.30;82.70;;;;;;4824187;29;20074;-77
2022/01/09 11:13:57;;;;;;;12.02;1.88;;;5.50;82.40;;;;;;4825441;29;20443;-77
2022/01/09 11:16:32;;;;;;;9.00;1.40;;;5.60;82.00;;;;;;4825461;29;20486;-77
2022/01/09 11:19:18;;;;;;;12.52;1.90;;;5.80;81.60;;;;;;4808344;29;20054;-77
2022/01/09 11:21:55;;;;;;;10.32;1.70;;;5.80;81.50;;;;;;4825094;29;20535;-76
2022/01/09 11:24:56;;;;;;;9.05;1.10;;;5.90;81.30;;;;;;4808617;29;20058;-76
2022/01/09 11:27:45;;;;;;;9.23;1.35;;;6.00;80.80;;;;;;4823473;29;20395;-77
2022/01/09 11:30:19;;;;;;;14.90;1.85;;;6.00;80.50;;;;;;4824064;29;20055;-78
2022/01/09 11:32:56;;;;;;;11.57;2.15;;;6.10;80.20;;;;;;4824829;29;20078;-76
2022/01/09 11:35:48;;;;;;;7.85;1.55;;;6.20;80.10;;;;;;4825602;29;20054;-75
2022/01/09 11:38:43;;;;;;;15.32;1.75;;;6.20;80.20;;;;;;4808620;29;20054;-78
2022/01/09 11:41:23;;;;;;;16.50;1.90;;;6.30;80.20;;;;;;4823993;29;20053;-76
2022/01/09 11:43:59;;;;;;;14.40;1.83;;;6.40;80.40;;;;;;4825241;29;20058;-77
2022/01/09 11:46:29;;;;;;;15.85;1.88;;;6.60;80.10;;;;;;4824995;29;20050;-76
2022/01/09 11:48:57;;;;;;;12.20;2.13;;;6.90;79.70;;;;;;4825053;29;20054;-76
2022/01/09 11:51:30;;;;;;;11.05;1.98;;;7.30;79.00;;;;;;4825080;29;20069;-76
2022/01/09 11:54:10;;;;;;;11.02;1.90;;;7.50;78.30;;;;;;4793795;29;20061;-76
2022/01/09 11:56:52;;;;;;;20.10;2.40;;;7.80;76.60;;;;;;4824914;29;20399;-76
2022/01/09 11:59:37;;;;;;;14.45;2.15;;;8.00;75.90;;;;;;4824844;29;20046;-76
2022/01/09 12:02:11;;;;;;;16.73;1.88;;;8.30;75.40;;;;;;4808387;29;20065;-76
2022/01/09 12:04:42;;;;;;;11.10;1.75;;;8.40;75.40;;;;;;4808315;29;20054;-77
2022/01/09 12:07:18;;;;;;;15.30;2.42;;;8.60;74.20;;;;;;4806687;29;20055;-76
2022/01/09 12:09:51;;;;;;;9.55;2.03;;;8.70;73.60;;;;;;4808276;29;20058;-76
2022/01/09 12:12:21;;;;;;;12.60;2.05;;;8.70;72.70;;;;;;4824358;29;20050;-76
2022/01/09 12:14:54;;;;;;;15.18;2.50;;;8.80;73.00;;;;;;4823902;29;20058;-75
2022/01/09 12:17:25;;;;;;;4.55;1.27;;;9.00;72.70;;;;;;4807434;29;20418;-75
2022/01/09 12:20:12;;;;;;;11.77;2.20;;;9.20;72.10;;;;;;4808086;29;20503;-77
2022/01/09 12:22:45;;;;;;;15.02;2.58;;;9.30;71.70;;;;;;4824401;29;20055;-77
2022/01/09 12:25:22;;;;;;;12.75;1.95;;;9.10;71.40;;;;;;4808282;29;20525;-78
2022/01/09 12:28:11;;;;;;;15.30;2.35;;;8.80;71.60;;;;;;4825190;29;20050;-76
2022/01/09 12:30:40;;;;;;;9.45;1.27;;;8.40;72.40;;;;;;4798795;29;20054;-76
2022/01/09 12:33:16;;;;;;;10.25;1.77;;;8.10;73.70;;;;;;4812883;29;20054;-76
2022/01/09 12:35:59;;;;;;;6.88;1.10;;;8.10;74.30;;;;;;4815500;29;20054;-76
2022/01/09 12:38:29;;;;;;;15.33;2.03;;;8.20;74.20;;;;;;4832523;29;20043;-76
2022/01/09 12:40:56;;;;;;;12.70;2.15;;;8.10;73.80;;;;;;4831339;29;20054;-76
2022/01/09 12:43:26;;;;;;;10.70;1.92;;;7.80;74.40;;;;;;4834123;29;20049;-77
2022/01/09 12:45:54;;;;;;;14.25;2.20;;;7.70;75.00;;;;;;4846704;29;20046;-75
2022/01/09 12:48:30;;;;;;;14.52;2.20;;;7.60;75.70;;;;;;4830619;29;20053;-76
2022/01/09 12:51:14;;;;;;;15.13;2.25;;;7.70;75.70;;;;;;4844014;29;20050;-76
2022/01/09 12:53:43;;;;;;;8.68;1.58;;;7.80;75.90;;;;;;4842304;29;20049;-76
2022/01/09 12:56:18;;;;;;;9.20;1.65;;;8.30;74.60;;;;;;4825949;29;20058;-76
2022/01/09 12:58:50;;;;;;;10.00;1.88;;;8.70;73.30;;;;;;4842143;29;20425;-76
2022/01/09 13:01:36;;;;;;;11.23;1.70;;;9.10;72.20;;;;;;4841467;29;20054;-76
2022/01/09 13:04:24;;;;;;;12.60;2.20;;;9.40;70.80;;;;;;4840770;29;20062;-76
2022/01/09 13:06:55;;;;;;;8.05;1.80;;;9.80;69.40;;;;;;4841801;29;20056;-76
2022/01/09 13:09:25;;;;;;;17.27;2.40;;;10.00;68.60;;;;;;4839537;29;20072;-76